createdAt,value
2018-06-15T00:02:16.425Z,3.57
2018-06-15T00:04:44.099Z,3.20
2018-06-15T00:07:11.559Z,3.33
2018-06-15T00:09:39.931Z,3.10
2018-06-15T00:12:07.391Z,3.47
2018-06-15T00:14:35.176Z,3.50
2018-06-15T00:17:02.623Z,3.37
2018-06-15T00:19:30.371Z,3.30
2018-06-15T00:21:57.831Z,3.10
2018-06-15T00:24:25.207Z,3.80
2018-06-15T00:26:52.610Z,3.23
2018-06-15T00:29:20.199Z,3.30
2018-06-15T00:31:47.748Z,3.17
2018-06-15T00:34:15.419Z,3.40
2018-06-15T00:36:42.876Z,3.57
2018-06-15T00:39:11.967Z,3.57
2018-06-15T00:41:39.940Z,3.27
2018-06-15T00:44:07.412Z,3.27
2018-06-15T00:46:34.868Z,3.03
2018-06-15T00:49:02.314Z,3.73
2018-06-15T00:51:29.711Z,3.63
2018-06-15T00:53:57.427Z,3.33
2018-06-15T00:56:24.989Z,3.40
2018-06-15T00:58:52.399Z,3.87
2018-06-15T01:01:20.520Z,3.50
2018-06-15T01:03:48.016Z,3.30
2018-06-15T01:06:15.435Z,3.37
2018-06-15T01:08:43.508Z,3.57
2018-06-15T01:11:10.871Z,3.27
2018-06-15T01:13:39.023Z,3.67
2018-06-15T01:16:07.436Z,3.73
2018-06-15T01:18:34.819Z,3.80
2018-06-15T01:21:02.363Z,3.80
2018-06-15T01:23:29.743Z,4.23
2018-06-15T01:25:57.231Z,3.90
2018-06-15T01:28:25.027Z,4.00
2018-06-15T01:30:53.031Z,4.10
2018-06-15T01:33:20.819Z,3.93
2018-06-15T01:35:48.203Z,4.00
2018-06-15T01:38:15.837Z,3.73
2018-06-15T01:40:43.231Z,4.23
2018-06-15T01:43:10.710Z,4.27
2018-06-15T01:45:38.111Z,3.87
2018-06-15T01:48:05.993Z,4.07
2018-06-15T01:50:33.372Z,4.00
2018-06-15T01:53:00.787Z,3.70
2018-06-15T01:55:28.235Z,3.80
2018-06-15T01:57:55.709Z,3.83
2018-06-15T02:00:23.121Z,4.00
2018-06-15T02:02:50.511Z,4.20
2018-06-15T02:05:17.923Z,4.10
2018-06-15T02:07:45.562Z,3.80
2018-06-15T02:10:12.934Z,4.37
2018-06-15T02:12:40.846Z,3.90
2018-06-15T02:15:08.519Z,3.83
2018-06-15T02:17:36.007Z,3.80
2018-06-15T02:20:03.443Z,4.17
2018-06-15T02:22:30.887Z,4.07
2018-06-15T02:24:58.257Z,3.90
2018-06-15T02:27:25.640Z,4.23
2018-06-15T02:29:53.063Z,4.27
2018-06-15T02:32:20.497Z,3.97
2018-06-15T02:34:47.892Z,3.90
2018-06-15T02:37:15.595Z,4.33
2018-06-15T02:39:43.092Z,3.60
2018-06-15T02:42:10.491Z,3.80
2018-06-15T02:44:38.007Z,4.37
2018-06-15T02:47:05.423Z,4.20
2018-06-15T02:49:33.412Z,3.70
2018-06-15T02:52:01.059Z,4.00
2018-06-15T02:54:28.451Z,3.67
2018-06-15T02:56:55.972Z,3.70
2018-06-15T02:59:23.387Z,4.00
2018-06-15T03:01:50.824Z,3.77
2018-06-15T03:04:18.183Z,3.80
2018-06-15T03:06:46.339Z,3.63
2018-06-15T03:09:13.705Z,3.47
2018-06-15T03:11:41.278Z,4.07
2018-06-15T03:14:08.648Z,4.10
2018-06-15T03:16:36.170Z,3.60
2018-06-15T03:19:03.558Z,3.90
2018-06-15T03:21:31.075Z,3.93
2018-06-15T03:23:58.538Z,3.70
2018-06-15T03:26:26.015Z,3.87
2018-06-15T03:28:53.415Z,3.70
2018-06-15T03:31:20.900Z,3.90
2018-06-15T03:33:48.383Z,3.70
2018-06-15T03:36:15.815Z,3.70
2018-06-15T03:38:43.235Z,3.23
2018-06-15T03:41:10.611Z,3.90
2018-06-15T03:43:37.989Z,3.60
2018-06-15T03:46:05.406Z,4.33
2018-06-15T03:48:32.791Z,3.47
2018-06-15T03:51:00.248Z,3.40
2018-06-15T03:53:27.708Z,3.63
2018-06-15T03:55:55.162Z,3.37
2018-06-15T03:58:22.647Z,3.60
2018-06-15T04:00:50.690Z,3.40
2018-06-15T04:03:18.129Z,3.30
2018-06-15T04:05:45.690Z,3.30
2018-06-15T04:08:13.091Z,3.30
2018-06-15T04:10:40.603Z,2.83
2018-06-15T04:13:08.094Z,4.17
2018-06-15T04:15:35.391Z,3.57
2018-06-15T04:18:04.894Z,2.93
2018-06-15T04:20:32.280Z,3.07
2018-06-15T04:23:00.283Z,3.30
2018-06-15T04:25:28.213Z,3.50
2018-06-15T04:27:55.786Z,3.77
2018-06-15T04:30:23.556Z,2.97
2018-06-15T04:32:51.935Z,3.20
2018-06-15T04:35:19.475Z,3.27
2018-06-15T04:37:47.468Z,3.43
2018-06-15T04:40:14.948Z,3.50
2018-06-15T04:42:43.294Z,2.93
2018-06-15T04:45:10.755Z,2.70
2018-06-15T04:47:38.209Z,3.43
2018-06-15T04:50:06.294Z,3.20
2018-06-15T04:52:34.044Z,2.90
2018-06-15T04:55:01.508Z,2.83
2018-06-15T04:57:29.323Z,2.73
2018-06-15T04:59:57.079Z,2.93
2018-06-15T05:02:24.558Z,3.07
2018-06-15T05:04:51.997Z,2.70
2018-06-15T05:07:21.327Z,3.00
2018-06-15T05:09:48.749Z,2.80
2018-06-15T05:12:16.511Z,2.80
2018-06-15T05:14:44.228Z,3.20
2018-06-15T05:17:11.755Z,2.80
2018-06-15T05:19:40.461Z,2.90
2018-06-15T05:22:07.859Z,2.83
2018-06-15T05:24:35.296Z,3.00
2018-06-15T05:27:02.738Z,2.87
2018-06-15T05:29:31.719Z,3.10
2018-06-15T05:31:59.099Z,3.03
2018-06-15T05:34:26.542Z,3.03
2018-06-15T05:36:54.795Z,3.23
2018-06-15T05:39:22.191Z,2.77
2018-06-15T05:41:49.571Z,2.90
2018-06-15T05:44:16.978Z,2.60
2018-06-15T05:46:44.621Z,2.97
2018-06-15T05:49:12.986Z,3.10
2018-06-15T05:51:40.379Z,2.57
2018-06-15T05:54:07.775Z,2.87
2018-06-15T05:56:36.256Z,2.97
2018-06-15T05:59:04.370Z,2.80
2018-06-15T06:01:31.827Z,2.73
2018-06-15T06:03:59.312Z,2.50
2018-06-15T06:06:26.692Z,2.57
2018-06-15T06:08:54.075Z,2.87
2018-06-15T06:11:21.459Z,2.57
2018-06-15T06:13:49.048Z,2.83
2018-06-15T06:16:16.774Z,2.30
2018-06-15T06:18:44.862Z,2.80
2018-06-15T06:21:12.807Z,2.50
2018-06-15T06:23:40.190Z,2.70
2018-06-15T06:26:07.863Z,2.20
2018-06-15T06:28:35.335Z,2.37
2018-06-15T06:31:03.539Z,2.57
2018-06-15T06:33:31.160Z,2.27
2018-06-15T06:35:58.593Z,2.63
2018-06-15T06:38:26.205Z,2.20
2018-06-15T06:40:53.813Z,2.20
2018-06-15T06:43:21.195Z,2.20
2018-06-15T06:45:49.351Z,2.50
2018-06-15T06:48:16.998Z,2.33
2018-06-15T06:50:44.579Z,2.43
2018-06-15T06:53:12.031Z,2.30
2018-06-15T06:55:39.412Z,2.27
2018-06-15T06:58:07.607Z,2.00
2018-06-15T07:00:35.912Z,1.90
2018-06-15T07:03:03.403Z,2.10
2018-06-15T07:05:30.827Z,2.40
2018-06-15T07:07:58.283Z,2.50
2018-06-15T07:10:26.047Z,2.50
2018-06-15T07:12:53.511Z,2.50
2018-06-15T07:15:20.992Z,2.77
2018-06-15T07:17:48.375Z,2.30
2018-06-15T07:20:15.743Z,2.03
2018-06-15T07:22:43.335Z,2.20
2018-06-15T07:25:10.713Z,2.20
2018-06-15T07:27:38.799Z,2.60
2018-06-15T07:30:06.934Z,2.60
2018-06-15T07:32:34.307Z,1.97
2018-06-15T07:35:01.938Z,1.90
2018-06-15T07:37:29.307Z,2.47
2018-06-15T07:39:56.798Z,2.20
2018-06-15T07:42:24.223Z,2.30
2018-06-15T07:44:51.671Z,2.30
2018-06-15T07:47:19.127Z,2.20
2018-06-15T07:49:46.587Z,2.30
2018-06-15T07:52:14.000Z,2.23
2018-06-15T07:54:41.363Z,2.07
2018-06-15T07:57:08.959Z,2.07
2018-06-15T07:59:36.423Z,2.67
2018-06-15T08:02:03.855Z,2.30
2018-06-15T08:04:31.246Z,2.47
2018-06-15T08:06:58.784Z,2.30
2018-06-15T08:09:26.334Z,1.90
2018-06-15T08:11:53.703Z,1.83
2018-06-15T08:14:21.070Z,1.70
2018-06-15T08:16:48.650Z,1.60
2018-06-15T08:19:16.075Z,2.13
2018-06-15T08:21:43.560Z,1.70
2018-06-15T08:24:11.035Z,2.20
2018-06-15T08:26:38.409Z,2.00
2018-06-15T08:29:05.794Z,1.97
2018-06-15T08:31:33.355Z,1.80
2018-06-15T08:34:00.735Z,2.03
2018-06-15T08:36:28.131Z,1.93
2018-06-15T08:38:55.727Z,1.83
2018-06-15T08:41:23.272Z,2.13
2018-06-15T08:43:50.646Z,1.60
2018-06-15T08:46:18.099Z,1.80
2018-06-15T08:48:45.551Z,1.80
2018-06-15T08:51:12.911Z,1.83
2018-06-15T08:53:40.557Z,1.80
2018-06-15T08:56:08.503Z,1.60
2018-06-15T08:58:35.927Z,2.13
2018-06-15T09:01:03.327Z,2.00
2018-06-15T09:03:30.911Z,1.70
2018-06-15T09:05:58.395Z,1.90
2018-06-15T09:08:25.819Z,2.00
2018-06-15T09:10:54.202Z,1.87
2018-06-15T09:13:22.227Z,2.10
2018-06-15T09:15:49.731Z,2.03
2018-06-15T09:18:17.139Z,1.90
2018-06-15T09:20:44.511Z,1.83
2018-06-15T09:23:11.895Z,1.40
2018-06-15T09:25:39.467Z,1.50
2018-06-15T09:28:07.256Z,1.50
2018-06-15T09:30:34.811Z,1.53
2018-06-15T09:33:02.183Z,1.77
2018-06-15T09:35:29.560Z,1.80
2018-06-15T09:37:56.944Z,1.60
2018-06-15T09:40:24.307Z,1.70
2018-06-15T09:42:51.846Z,1.60
2018-06-15T09:45:19.219Z,1.60
2018-06-15T09:47:46.604Z,2.20
2018-06-15T09:50:14.274Z,1.73
2018-06-15T09:52:42.218Z,1.60
2018-06-15T09:55:09.631Z,1.93
2018-06-15T09:57:37.110Z,1.63
2018-06-15T10:00:04.792Z,2.03
2018-06-15T10:02:32.422Z,1.80
2018-06-15T10:04:59.791Z,2.03
2018-06-15T10:07:27.217Z,2.00
2018-06-15T10:09:54.795Z,1.73
2018-06-15T10:12:22.215Z,2.00
2018-06-15T10:14:49.923Z,2.03
2018-06-15T10:17:17.923Z,1.77
2018-06-15T10:19:45.483Z,1.83
2018-06-15T10:22:12.851Z,1.83
2018-06-15T10:24:40.370Z,1.80
2018-06-15T10:27:07.918Z,1.70
2018-06-15T10:29:36.016Z,1.60
2018-06-15T10:32:03.423Z,2.10
2018-06-15T10:34:31.648Z,1.80
2018-06-15T10:36:59.084Z,2.00
2018-06-15T10:39:26.584Z,1.73
2018-06-15T10:41:53.960Z,2.10
2018-06-15T10:44:21.491Z,2.20
2018-06-15T10:46:48.919Z,2.20
2018-06-15T10:49:16.462Z,2.00
2018-06-15T10:51:43.859Z,1.90
2018-06-15T10:54:11.287Z,2.08
2018-06-15T10:56:39.081Z,2.20
2018-06-15T10:59:06.475Z,1.50
2018-06-15T11:01:33.963Z,2.17
2018-06-15T11:04:01.335Z,2.00
2018-06-15T11:06:28.879Z,2.12
2018-06-15T11:08:56.409Z,2.17
2018-06-15T11:11:23.791Z,2.12
2018-06-15T11:13:51.247Z,1.98
2018-06-15T11:16:18.631Z,2.05
2018-06-15T11:18:46.024Z,1.90
2018-06-15T11:21:13.650Z,2.10
2018-06-15T11:23:41.192Z,1.98
2018-06-15T11:26:08.579Z,2.00
2018-06-15T11:28:36.002Z,2.02
2018-06-15T11:31:04.529Z,1.85
2018-06-15T11:33:36.865Z,2.90
2018-06-15T11:36:04.267Z,2.22
2018-06-15T11:38:32.675Z,2.12
2018-06-15T11:41:00.186Z,2.17
2018-06-15T11:43:27.555Z,1.85
2018-06-15T11:45:54.991Z,1.70
2018-06-15T11:48:22.450Z,2.20
2018-06-15T11:50:53.567Z,1.80
2018-06-15T11:53:21.351Z,1.85
2018-06-15T11:55:48.739Z,2.02
2018-06-15T11:58:16.151Z,2.02
2018-06-15T12:00:43.769Z,2.10
2018-06-15T12:03:11.151Z,1.90
2018-06-15T12:05:38.539Z,1.62
2018-06-15T12:08:06.468Z,1.83
2018-06-15T12:10:33.859Z,1.73
2018-06-15T12:13:01.244Z,1.87
2018-06-15T12:15:28.731Z,2.00
2018-06-15T12:17:56.187Z,1.90
2018-06-15T12:20:23.654Z,1.90
2018-06-15T12:22:51.055Z,2.13
2018-06-15T12:25:18.440Z,2.17
2018-06-15T12:27:46.015Z,2.13
2018-06-15T12:30:13.471Z,1.83
2018-06-15T12:32:41.550Z,2.17
2018-06-15T12:35:09.090Z,1.70
2018-06-15T12:37:36.471Z,2.30
2018-06-15T12:40:03.889Z,2.00
2018-06-15T12:42:31.283Z,2.00
2018-06-15T12:44:58.828Z,1.90
2018-06-15T12:47:26.366Z,1.90
2018-06-15T12:49:53.739Z,1.90
2018-06-15T12:52:21.107Z,1.90
2018-06-15T12:54:48.664Z,1.83
2018-06-15T12:57:16.739Z,2.40
2018-06-15T12:59:44.848Z,1.80
2018-06-15T13:02:12.223Z,2.20
2018-06-15T13:04:39.726Z,1.90
2018-06-15T13:07:07.098Z,2.10
2018-06-15T13:09:34.631Z,1.80
2018-06-15T13:12:02.277Z,1.97
2018-06-15T13:14:29.884Z,2.00
2018-06-15T13:16:57.395Z,2.17
2018-06-15T13:19:24.786Z,2.10
2018-06-15T13:21:52.248Z,2.30
2018-06-15T13:24:19.682Z,1.93
2018-06-15T13:26:47.064Z,1.80
2018-06-15T13:29:14.471Z,2.30
2018-06-15T13:31:42.059Z,2.00
2018-06-15T13:34:09.539Z,1.93
2018-06-15T13:36:36.959Z,2.00
2018-06-15T13:39:07.107Z,1.80
2018-06-15T13:41:34.491Z,2.17
2018-06-15T13:44:01.987Z,2.00
2018-06-15T13:46:29.579Z,1.73
2018-06-15T13:48:57.007Z,2.07
2018-06-15T13:51:24.479Z,1.80
2018-06-15T13:53:51.980Z,1.70
2018-06-15T13:56:19.379Z,2.00
2018-06-15T13:58:46.779Z,2.20
2018-06-15T14:01:14.172Z,1.67
2018-06-15T14:03:41.559Z,2.07
2018-06-15T14:06:09.298Z,2.27
2018-06-15T14:08:36.681Z,1.80
2018-06-15T14:11:04.067Z,1.80
2018-06-15T14:13:31.471Z,1.90
2018-06-15T14:15:59.049Z,1.63
2018-06-15T14:18:26.420Z,2.00
2018-06-15T14:20:53.839Z,1.87
2018-06-15T14:23:21.407Z,1.77
2018-06-15T14:25:48.887Z,1.93
2018-06-15T14:28:16.323Z,2.10
2018-06-15T14:30:43.775Z,2.10
2018-06-15T14:33:11.259Z,1.80
2018-06-15T14:35:38.690Z,2.03
2018-06-15T14:38:06.148Z,1.90
2018-06-15T14:40:33.623Z,2.20
2018-06-15T14:43:01.048Z,2.10
2018-06-15T14:45:28.552Z,1.80
2018-06-15T14:47:55.979Z,1.83
2018-06-15T14:50:23.355Z,2.23
2018-06-15T14:52:50.917Z,2.17
2018-06-15T14:55:18.347Z,2.63
2018-06-15T14:57:45.834Z,2.07
2018-06-15T15:00:13.223Z,2.40
2018-06-15T15:02:40.623Z,1.90
2018-06-15T15:05:08.020Z,1.97
2018-06-15T15:07:35.636Z,2.00
2018-06-15T15:10:03.143Z,2.30
2018-06-15T15:12:30.634Z,2.30
2018-06-15T15:14:58.135Z,2.07
2018-06-15T15:17:25.630Z,1.63
2018-06-15T15:19:53.231Z,2.10
2018-06-15T15:22:20.648Z,1.90
2018-06-15T15:24:48.447Z,2.10
2018-06-15T15:27:15.991Z,2.13
2018-06-15T15:29:43.372Z,1.83
2018-06-15T15:32:11.416Z,1.90
2018-06-15T15:34:40.506Z,2.27
2018-06-15T15:37:08.007Z,1.93
2018-06-15T15:39:35.459Z,2.30
2018-06-15T15:42:05.859Z,1.90
2018-06-15T15:44:33.961Z,2.00
2018-06-15T15:47:03.514Z,2.20
2018-06-15T15:49:31.863Z,1.90
2018-06-15T15:52:00.612Z,2.20
2018-06-15T15:54:28.199Z,2.17
2018-06-15T15:56:55.828Z,1.93
2018-06-15T15:59:23.231Z,2.10
2018-06-15T16:01:51.027Z,1.80
2018-06-15T16:04:18.520Z,2.13
2018-06-15T16:06:45.903Z,2.30
2018-06-15T16:09:13.307Z,2.07
2018-06-15T16:11:40.716Z,1.80
2018-06-15T16:14:08.113Z,2.40
2018-06-15T16:16:35.501Z,2.00
2018-06-15T16:19:02.878Z,2.03
2018-06-15T16:21:30.399Z,2.03
2018-06-15T16:23:57.822Z,2.10
2018-06-15T16:26:25.324Z,1.90
2018-06-15T16:28:52.883Z,2.00
2018-06-15T16:31:20.283Z,2.30
2018-06-15T16:33:47.669Z,2.10
2018-06-15T16:36:15.283Z,2.00
2018-06-15T16:38:42.719Z,2.40
2018-06-15T16:41:10.474Z,1.90
2018-06-15T16:43:37.938Z,2.27
2018-06-15T16:46:05.694Z,2.10
2018-06-15T16:48:33.268Z,2.67
2018-06-15T16:51:00.666Z,2.40
2018-06-15T16:53:28.051Z,2.70
2018-06-15T16:55:55.427Z,2.23
2018-06-15T16:58:23.060Z,3.13
2018-06-15T17:00:51.377Z,2.37
2018-06-15T17:03:19.524Z,1.83
2018-06-15T17:05:46.899Z,1.90
2018-06-15T17:08:16.036Z,2.00
2018-06-15T17:10:43.724Z,1.77
2018-06-15T17:13:11.183Z,2.00
2018-06-15T17:15:39.079Z,1.80
2018-06-15T17:18:07.376Z,2.23
2018-06-15T17:20:35.014Z,2.30
2018-06-15T17:23:02.536Z,2.00
2018-06-15T17:25:29.942Z,2.00
2018-06-15T17:27:57.373Z,2.30
2018-06-15T17:30:24.908Z,2.10
2018-06-15T17:32:52.323Z,2.27
2018-06-15T17:35:19.718Z,1.97
2018-06-15T17:37:47.211Z,2.53
2018-06-15T17:40:14.584Z,1.87
2018-06-15T17:42:41.986Z,2.43
2018-06-15T17:45:09.398Z,1.90
2018-06-15T17:47:36.787Z,2.00
2018-06-15T17:50:04.196Z,2.10
2018-06-15T17:52:31.956Z,2.50
2018-06-15T17:54:59.399Z,2.03
2018-06-15T17:57:26.844Z,2.27
2018-06-15T17:59:54.223Z,1.93
2018-06-15T18:02:21.771Z,2.40
2018-06-15T18:04:49.539Z,5.30
2018-06-15T18:07:17.001Z,2.27
2018-06-15T18:09:44.403Z,2.03
2018-06-15T18:12:11.775Z,2.47
2018-06-15T18:14:39.180Z,2.20
2018-06-15T18:17:06.615Z,2.20
2018-06-15T18:19:34.058Z,2.47
2018-06-15T18:22:01.516Z,2.53
2018-06-15T18:24:29.195Z,2.40
2018-06-15T18:26:56.590Z,2.40
2018-06-15T18:29:24.154Z,2.40
2018-06-15T18:31:51.562Z,2.67
2018-06-15T18:34:19.043Z,2.20
2018-06-15T18:36:46.432Z,2.17
2018-06-15T18:39:15.164Z,2.07
2018-06-15T18:41:43.270Z,1.93
2018-06-15T18:44:10.723Z,2.10
2018-06-15T18:46:38.150Z,2.27
2018-06-15T18:49:05.599Z,2.10
2018-06-15T18:51:33.066Z,1.90
2018-06-15T18:54:00.551Z,2.10
2018-06-15T18:56:28.676Z,2.30
2018-06-15T18:58:56.659Z,2.00
2018-06-15T19:01:24.119Z,2.10
2018-06-15T19:03:51.503Z,2.43
2018-06-15T19:06:19.063Z,2.03
2018-06-15T19:08:46.491Z,2.20
2018-06-15T19:11:13.863Z,2.00
2018-06-15T19:13:41.700Z,1.90
2018-06-15T19:16:09.807Z,2.13
2018-06-15T19:18:37.279Z,1.87
2018-06-15T19:21:04.715Z,2.00
2018-06-15T19:23:32.461Z,1.63
2018-06-15T19:25:59.887Z,1.83
2018-06-15T19:28:27.370Z,2.23
2018-06-15T19:30:54.783Z,1.77
2018-06-15T19:33:22.263Z,1.63
2018-06-15T19:35:49.643Z,1.60
2018-06-15T19:38:17.020Z,1.50
2018-06-15T19:40:44.431Z,1.80
2018-06-15T19:43:12.775Z,1.60
2018-06-15T19:45:40.156Z,1.80
2018-06-15T19:48:07.543Z,1.63
2018-06-15T19:50:34.933Z,1.63
2018-06-15T19:53:02.323Z,1.60
2018-06-15T19:55:29.749Z,1.57
2018-06-15T19:57:57.163Z,1.70
2018-06-15T20:00:24.535Z,1.60
2018-06-15T20:02:52.087Z,1.60
2018-06-15T20:05:19.537Z,1.50
2018-06-15T20:07:46.919Z,1.60
2018-06-15T20:10:14.456Z,1.60
2018-06-15T20:12:41.904Z,1.50
2018-06-15T20:15:09.368Z,1.47
2018-06-15T20:17:36.870Z,1.63
2018-06-15T20:20:04.621Z,1.80
2018-06-15T20:22:31.996Z,2.13
2018-06-15T20:24:59.384Z,1.90
2018-06-15T20:27:26.867Z,2.10
2018-06-15T20:29:54.504Z,1.90
2018-06-15T20:32:22.211Z,1.80
2018-06-15T20:34:49.619Z,2.00
2018-06-15T20:37:17.099Z,2.03
2018-06-15T20:39:44.549Z,2.03
2018-06-15T20:42:11.959Z,1.93
2018-06-15T20:44:39.367Z,1.70
2018-06-15T20:47:06.927Z,1.83
2018-06-15T20:49:34.375Z,1.97
2018-06-15T20:52:01.858Z,2.70
2018-06-15T20:54:29.294Z,3.17
2018-06-15T20:56:57.699Z,4.40
2018-06-15T20:59:25.447Z,3.10
2018-06-15T21:01:52.987Z,5.30
2018-06-15T21:04:20.647Z,4.60
2018-06-15T21:06:48.420Z,3.43
2018-06-15T21:09:15.847Z,4.03
2018-06-15T21:11:43.359Z,3.97
2018-06-15T21:14:11.231Z,3.80
2018-06-15T21:16:38.724Z,4.30
2018-06-15T21:19:06.508Z,5.20
2018-06-15T21:21:33.975Z,4.93
2018-06-15T21:24:01.346Z,5.03
2018-06-15T21:26:28.743Z,5.20
2018-06-15T21:28:56.299Z,4.80
2018-06-15T21:31:23.710Z,4.50
2018-06-15T21:33:51.456Z,3.90
2018-06-15T21:36:18.919Z,3.30
2018-06-15T21:38:46.319Z,4.33
2018-06-15T21:41:13.752Z,3.70
2018-06-15T21:43:41.298Z,4.13
2018-06-15T21:46:08.675Z,4.43
2018-06-15T21:48:36.108Z,4.20
2018-06-15T21:51:03.579Z,3.83
2018-06-15T21:53:31.032Z,4.40
2018-06-15T21:55:58.467Z,4.03
2018-06-15T21:58:25.955Z,4.10
2018-06-15T22:00:53.407Z,4.27
2018-06-15T22:03:21.487Z,3.83
2018-06-15T22:05:48.935Z,4.30
2018-06-15T22:08:16.449Z,3.60
2018-06-15T22:10:43.827Z,3.90
2018-06-15T22:13:11.199Z,4.17
2018-06-15T22:15:39.455Z,3.83
2018-06-15T22:18:06.843Z,4.27
2018-06-15T22:20:34.254Z,3.97
2018-06-15T22:23:01.635Z,3.93
2018-06-15T22:25:29.031Z,3.93
2018-06-15T22:27:56.407Z,4.27
2018-06-15T22:30:24.303Z,4.20
2018-06-15T22:32:51.911Z,4.07
2018-06-15T22:35:19.319Z,4.27
2018-06-15T22:37:46.788Z,4.50
2018-06-15T22:40:14.243Z,3.70
2018-06-15T22:42:41.644Z,4.17
2018-06-15T22:45:09.096Z,3.87
2018-06-15T22:47:36.627Z,3.83
2018-06-15T22:50:04.160Z,4.50
2018-06-15T22:52:31.547Z,4.50
2018-06-15T22:54:58.992Z,4.20
2018-06-15T22:57:26.407Z,4.23
2018-06-15T22:59:53.986Z,4.07
2018-06-15T23:02:21.358Z,4.27
2018-06-15T23:04:48.843Z,4.27
2018-06-15T23:07:16.271Z,4.60
2018-06-15T23:09:43.925Z,4.67
2018-06-15T23:12:11.435Z,4.70
2018-06-15T23:14:39.026Z,4.60
2018-06-15T23:23:50.389Z,4.27
2018-06-15T23:26:17.777Z,3.93
2018-06-15T23:28:45.192Z,4.00
2018-06-15T23:31:12.753Z,3.33
2018-06-15T23:33:40.143Z,3.30
2018-06-15T23:36:07.527Z,3.70
2018-06-15T23:38:35.126Z,3.27
2018-06-15T23:41:02.611Z,3.20
2018-06-15T23:43:29.986Z,3.40
2018-06-15T23:45:57.491Z,3.10
2018-06-15T23:48:25.253Z,2.87
2018-06-15T23:50:52.668Z,3.07
2018-06-15T23:53:20.259Z,3.20
2018-06-15T23:55:47.628Z,3.10
2018-06-15T23:58:15.015Z,3.00
